sensor_id;sensor_type;location;lat;lon;timestamp;P1;durP1;ratioP1;P2;durP2;ratioP2
68763;SDS011;55754;52.038;5.566;2022-09-09T00:00:30;4.88;;;1.35;;
68763;SDS011;55754;52.038;5.566;2022-09-09T00:03:06;5.30;;;1.60;;
68763;SDS011;55754;52.038;5.566;2022-09-09T00:05:53;5.15;;;1.60;;
68763;SDS011;55754;52.038;5.566;2022-09-09T00:08:25;5.72;;;2.33;;
68763;SDS011;55754;52.038;5.566;2022-09-09T00:11:12;6.67;;;2.60;;
68763;SDS011;55754;52.038;5.566;2022-09-09T00:13:48;5.57;;;2.40;;
68763;SDS011;55754;52.038;5.566;2022-09-09T00:16:24;6.70;;;2.30;;
68763;SDS011;55754;52.038;5.566;2022-09-09T00:23:59;6.43;;;2.10;;
68763;SDS011;55754;52.038;5.566;2022-09-09T00:31:49;5.32;;;2.10;;
68763;SDS011;55754;52.038;5.566;2022-09-09T00:34:22;5.38;;;2.35;;
68763;SDS011;55754;52.038;5.566;2022-09-09T00:36:50;6.73;;;2.60;;
68763;SDS011;55754;52.038;5.566;2022-09-09T00:39:29;7.63;;;2.55;;
68763;SDS011;55754;52.038;5.566;2022-09-09T00:44:34;7.75;;;2.83;;
68763;SDS011;55754;52.038;5.566;2022-09-09T00:52:30;7.30;;;3.10;;
68763;SDS011;55754;52.038;5.566;2022-09-09T00:55:22;9.27;;;3.50;;
68763;SDS011;55754;52.038;5.566;2022-09-09T00:58:21;7.05;;;3.17;;
68763;SDS011;55754;52.038;5.566;2022-09-09T01:00:51;8.67;;;3.17;;
68763;SDS011;55754;52.038;5.566;2022-09-09T01:03:35;8.95;;;3.20;;
68763;SDS011;55754;52.038;5.566;2022-09-09T01:17:19;9.40;;;3.30;;
68763;SDS011;55754;52.038;5.566;2022-09-09T01:20:02;6.63;;;2.47;;
68763;SDS011;55754;52.038;5.566;2022-09-09T01:27:57;5.85;;;2.20;;
68763;SDS011;55754;52.038;5.566;2022-09-09T01:30:26;5.68;;;2.20;;
68763;SDS011;55754;52.038;5.566;2022-09-09T01:32:54;7.30;;;2.43;;
68763;SDS011;55754;52.038;5.566;2022-09-09T01:38:09;5.57;;;2.38;;
68763;SDS011;55754;52.038;5.566;2022-09-09T01:40:35;6.55;;;2.75;;
68763;SDS011;55754;52.038;5.566;2022-09-09T01:43:01;9.55;;;3.17;;
68763;SDS011;55754;52.038;5.566;2022-09-09T01:45:28;9.97;;;3.03;;
68763;SDS011;55754;52.038;5.566;2022-09-09T01:47:54;9.70;;;3.35;;
68763;SDS011;55754;52.038;5.566;2022-09-09T01:50:21;6.57;;;2.50;;
68763;SDS011;55754;52.038;5.566;2022-09-09T01:52:49;5.40;;;2.60;;
68763;SDS011;55754;52.038;5.566;2022-09-09T01:55:22;7.13;;;2.80;;
68763;SDS011;55754;52.038;5.566;2022-09-09T02:00:25;6.75;;;2.53;;
68763;SDS011;55754;52.038;5.566;2022-09-09T02:03:03;5.63;;;2.78;;
68763;SDS011;55754;52.038;5.566;2022-09-09T02:05:39;7.93;;;2.75;;
68763;SDS011;55754;52.038;5.566;2022-09-09T02:08:11;8.47;;;2.90;;
68763;SDS011;55754;52.038;5.566;2022-09-09T02:13:16;7.50;;;2.70;;
68763;SDS011;55754;52.038;5.566;2022-09-09T02:15:53;7.55;;;2.92;;
68763;SDS011;55754;52.038;5.566;2022-09-09T02:21:14;6.03;;;2.80;;
68763;SDS011;55754;52.038;5.566;2022-09-09T02:23:42;5.85;;;2.75;;
68763;SDS011;55754;52.038;5.566;2022-09-09T02:26:12;9.75;;;2.88;;
68763;SDS011;55754;52.038;5.566;2022-09-09T02:28:44;6.28;;;2.60;;
68763;SDS011;55754;52.038;5.566;2022-09-09T02:31:11;6.07;;;2.50;;
68763;SDS011;55754;52.038;5.566;2022-09-09T02:33:41;8.40;;;2.80;;
68763;SDS011;55754;52.038;5.566;2022-09-09T02:36:10;6.03;;;2.60;;
68763;SDS011;55754;52.038;5.566;2022-09-09T02:38:45;5.30;;;2.65;;
68763;SDS011;55754;52.038;5.566;2022-09-09T02:41:16;6.13;;;2.60;;
68763;SDS011;55754;52.038;5.566;2022-09-09T02:43:44;6.57;;;2.60;;
68763;SDS011;55754;52.038;5.566;2022-09-09T02:48:46;5.82;;;2.58;;
68763;SDS011;55754;52.038;5.566;2022-09-09T02:51:45;7.50;;;2.33;;
68763;SDS011;55754;52.038;5.566;2022-09-09T02:56:51;6.70;;;2.38;;
68763;SDS011;55754;52.038;5.566;2022-09-09T02:59:21;7.47;;;2.40;;
68763;SDS011;55754;52.038;5.566;2022-09-09T03:01:49;6.78;;;2.42;;
68763;SDS011;55754;52.038;5.566;2022-09-09T03:04:15;5.93;;;2.50;;
68763;SDS011;55754;52.038;5.566;2022-09-09T03:06:41;6.72;;;2.58;;
68763;SDS011;55754;52.038;5.566;2022-09-09T03:09:06;6.20;;;2.40;;
68763;SDS011;55754;52.038;5.566;2022-09-09T03:11:35;6.50;;;2.53;;
68763;SDS011;55754;52.038;5.566;2022-09-09T03:14:01;6.90;;;2.55;;
68763;SDS011;55754;52.038;5.566;2022-09-09T03:16:27;6.90;;;2.53;;
68763;SDS011;55754;52.038;5.566;2022-09-09T03:18:53;4.80;;;2.37;;
68763;SDS011;55754;52.038;5.566;2022-09-09T03:21:18;5.32;;;2.38;;
68763;SDS011;55754;52.038;5.566;2022-09-09T03:23:44;5.73;;;2.33;;
68763;SDS011;55754;52.038;5.566;2022-09-09T03:26:10;8.07;;;2.50;;
68763;SDS011;55754;52.038;5.566;2022-09-09T03:28:36;6.20;;;2.50;;
68763;SDS011;55754;52.038;5.566;2022-09-09T03:31:02;8.00;;;2.53;;
68763;SDS011;55754;52.038;5.566;2022-09-09T03:33:29;5.63;;;2.63;;
68763;SDS011;55754;52.038;5.566;2022-09-09T03:35:55;5.97;;;2.53;;
68763;SDS011;55754;52.038;5.566;2022-09-09T03:38:22;5.32;;;2.70;;
68763;SDS011;55754;52.038;5.566;2022-09-09T03:40:49;7.55;;;2.80;;
68763;SDS011;55754;52.038;5.566;2022-09-09T03:43:16;8.83;;;2.70;;
68763;SDS011;55754;52.038;5.566;2022-09-09T03:45:45;7.05;;;2.90;;
68763;SDS011;55754;52.038;5.566;2022-09-09T03:48:12;6.72;;;2.70;;
68763;SDS011;55754;52.038;5.566;2022-09-09T03:50:38;6.47;;;2.67;;
68763;SDS011;55754;52.038;5.566;2022-09-09T03:53:04;5.78;;;2.90;;
68763;SDS011;55754;52.038;5.566;2022-09-09T03:55:31;8.77;;;2.80;;
68763;SDS011;55754;52.038;5.566;2022-09-09T03:57:57;6.57;;;2.72;;
68763;SDS011;55754;52.038;5.566;2022-09-09T04:00:23;7.50;;;2.70;;
68763;SDS011;55754;52.038;5.566;2022-09-09T04:02:49;6.35;;;2.88;;
68763;SDS011;55754;52.038;5.566;2022-09-09T04:05:14;8.17;;;2.93;;
68763;SDS011;55754;52.038;5.566;2022-09-09T04:07:40;7.43;;;2.80;;
68763;SDS011;55754;52.038;5.566;2022-09-09T04:10:06;8.10;;;2.83;;
68763;SDS011;55754;52.038;5.566;2022-09-09T04:12:33;6.40;;;2.90;;
68763;SDS011;55754;52.038;5.566;2022-09-09T04:14:59;7.03;;;2.90;;
68763;SDS011;55754;52.038;5.566;2022-09-09T04:17:27;8.10;;;3.30;;
68763;SDS011;55754;52.038;5.566;2022-09-09T04:19:52;8.13;;;2.93;;
68763;SDS011;55754;52.038;5.566;2022-09-09T04:22:18;8.32;;;3.00;;
68763;SDS011;55754;52.038;5.566;2022-09-09T04:24:44;6.03;;;2.83;;
68763;SDS011;55754;52.038;5.566;2022-09-09T04:27:09;9.10;;;2.90;;
68763;SDS011;55754;52.038;5.566;2022-09-09T04:29:35;6.07;;;2.83;;
68763;SDS011;55754;52.038;5.566;2022-09-09T04:32:00;10.25;;;3.10;;
68763;SDS011;55754;52.038;5.566;2022-09-09T04:34:26;6.10;;;2.50;;
68763;SDS011;55754;52.038;5.566;2022-09-09T04:36:52;7.60;;;2.83;;
68763;SDS011;55754;52.038;5.566;2022-09-09T04:39:17;7.37;;;2.77;;
68763;SDS011;55754;52.038;5.566;2022-09-09T04:41:44;8.52;;;2.90;;
68763;SDS011;55754;52.038;5.566;2022-09-09T04:44:10;7.90;;;2.90;;
68763;SDS011;55754;52.038;5.566;2022-09-09T04:46:36;7.97;;;3.03;;
68763;SDS011;55754;52.038;5.566;2022-09-09T04:49:01;10.23;;;3.00;;
68763;SDS011;55754;52.038;5.566;2022-09-09T04:51:27;6.20;;;2.80;;
68763;SDS011;55754;52.038;5.566;2022-09-09T04:53:53;8.53;;;2.90;;
68763;SDS011;55754;52.038;5.566;2022-09-09T04:56:19;7.93;;;2.88;;
68763;SDS011;55754;52.038;5.566;2022-09-09T04:58:45;5.82;;;2.60;;
68763;SDS011;55754;52.038;5.566;2022-09-09T05:01:20;5.85;;;2.72;;
68763;SDS011;55754;52.038;5.566;2022-09-09T05:03:47;8.87;;;2.73;;
68763;SDS011;55754;52.038;5.566;2022-09-09T05:06:15;6.95;;;2.90;;
68763;SDS011;55754;52.038;5.566;2022-09-09T05:08:43;8.85;;;3.00;;
68763;SDS011;55754;52.038;5.566;2022-09-09T05:13:50;9.50;;;2.93;;
68763;SDS011;55754;52.038;5.566;2022-09-09T05:16:17;6.53;;;2.85;;
68763;SDS011;55754;52.038;5.566;2022-09-09T05:18:43;8.95;;;2.80;;
68763;SDS011;55754;52.038;5.566;2022-09-09T05:21:11;8.65;;;2.72;;
68763;SDS011;55754;52.038;5.566;2022-09-09T05:23:37;7.25;;;2.60;;
68763;SDS011;55754;52.038;5.566;2022-09-09T05:26:03;5.73;;;2.60;;
68763;SDS011;55754;52.038;5.566;2022-09-09T05:28:30;6.47;;;2.92;;
68763;SDS011;55754;52.038;5.566;2022-09-09T05:30:58;6.55;;;2.83;;
68763;SDS011;55754;52.038;5.566;2022-09-09T05:33:26;5.57;;;2.50;;
68763;SDS011;55754;52.038;5.566;2022-09-09T05:35:56;6.53;;;2.57;;
68763;SDS011;55754;52.038;5.566;2022-09-09T05:38:27;10.52;;;3.00;;
68763;SDS011;55754;52.038;5.566;2022-09-09T05:40:54;8.55;;;2.55;;
68763;SDS011;55754;52.038;5.566;2022-09-09T05:43:21;9.32;;;2.50;;
68763;SDS011;55754;52.038;5.566;2022-09-09T05:45:47;6.63;;;2.60;;
68763;SDS011;55754;52.038;5.566;2022-09-09T05:48:23;10.87;;;2.50;;
68763;SDS011;55754;52.038;5.566;2022-09-09T05:50:52;8.70;;;2.90;;
68763;SDS011;55754;52.038;5.566;2022-09-09T05:53:19;9.77;;;2.33;;
68763;SDS011;55754;52.038;5.566;2022-09-09T05:55:45;8.53;;;2.30;;
68763;SDS011;55754;52.038;5.566;2022-09-09T05:58:11;10.18;;;2.40;;
68763;SDS011;55754;52.038;5.566;2022-09-09T06:00:36;7.17;;;2.40;;
68763;SDS011;55754;52.038;5.566;2022-09-09T06:03:02;8.53;;;2.50;;
68763;SDS011;55754;52.038;5.566;2022-09-09T06:05:28;7.38;;;2.90;;
68763;SDS011;55754;52.038;5.566;2022-09-09T06:07:55;8.25;;;2.38;;
68763;SDS011;55754;52.038;5.566;2022-09-09T06:10:21;8.30;;;2.40;;
68763;SDS011;55754;52.038;5.566;2022-09-09T06:12:46;9.93;;;2.30;;
68763;SDS011;55754;52.038;5.566;2022-09-09T06:15:12;8.43;;;2.33;;
68763;SDS011;55754;52.038;5.566;2022-09-09T06:17:37;10.85;;;2.55;;
68763;SDS011;55754;52.038;5.566;2022-09-09T06:20:04;9.17;;;2.33;;
68763;SDS011;55754;52.038;5.566;2022-09-09T06:22:30;7.88;;;2.60;;
68763;SDS011;55754;52.038;5.566;2022-09-09T06:24:56;8.20;;;2.60;;
68763;SDS011;55754;52.038;5.566;2022-09-09T06:27:21;7.73;;;2.90;;
68763;SDS011;55754;52.038;5.566;2022-09-09T06:29:47;13.48;;;3.40;;
68763;SDS011;55754;52.038;5.566;2022-09-09T06:32:13;8.93;;;3.00;;
68763;SDS011;55754;52.038;5.566;2022-09-09T06:34:39;8.52;;;3.10;;
68763;SDS011;55754;52.038;5.566;2022-09-09T06:37:05;12.20;;;3.22;;
68763;SDS011;55754;52.038;5.566;2022-09-09T06:39:31;10.77;;;2.87;;
68763;SDS011;55754;52.038;5.566;2022-09-09T06:41:57;11.80;;;3.13;;
68763;SDS011;55754;52.038;5.566;2022-09-09T06:44:23;16.42;;;2.70;;
68763;SDS011;55754;52.038;5.566;2022-09-09T06:46:51;9.30;;;2.50;;
68763;SDS011;55754;52.038;5.566;2022-09-09T06:49:17;10.27;;;2.65;;
68763;SDS011;55754;52.038;5.566;2022-09-09T06:51:43;9.70;;;2.90;;
68763;SDS011;55754;52.038;5.566;2022-09-09T06:54:09;12.00;;;2.63;;
68763;SDS011;55754;52.038;5.566;2022-09-09T06:56:36;12.88;;;3.10;;
68763;SDS011;55754;52.038;5.566;2022-09-09T06:59:06;11.50;;;2.80;;
68763;SDS011;55754;52.038;5.566;2022-09-09T07:01:34;8.13;;;2.50;;
68763;SDS011;55754;52.038;5.566;2022-09-09T07:04:02;11.52;;;2.85;;
68763;SDS011;55754;52.038;5.566;2022-09-09T07:06:33;14.27;;;2.83;;
68763;SDS011;55754;52.038;5.566;2022-09-09T07:09:04;12.27;;;2.38;;
68763;SDS011;55754;52.038;5.566;2022-09-09T07:11:32;8.25;;;2.40;;
68763;SDS011;55754;52.038;5.566;2022-09-09T07:13:59;13.27;;;2.83;;
68763;SDS011;55754;52.038;5.566;2022-09-09T07:16:26;7.53;;;2.40;;
68763;SDS011;55754;52.038;5.566;2022-09-09T07:18:54;12.40;;;2.30;;
68763;SDS011;55754;52.038;5.566;2022-09-09T07:21:26;11.13;;;2.45;;
68763;SDS011;55754;52.038;5.566;2022-09-09T07:23:53;10.70;;;2.60;;
68763;SDS011;55754;52.038;5.566;2022-09-09T07:26:19;9.48;;;2.40;;
68763;SDS011;55754;52.038;5.566;2022-09-09T07:28:46;12.13;;;2.50;;
68763;SDS011;55754;52.038;5.566;2022-09-09T07:31:14;10.93;;;2.30;;
68763;SDS011;55754;52.038;5.566;2022-09-09T07:33:42;11.02;;;2.35;;
68763;SDS011;55754;52.038;5.566;2022-09-09T07:36:12;8.52;;;2.60;;
68763;SDS011;55754;52.038;5.566;2022-09-09T07:38:47;12.23;;;2.40;;
68763;SDS011;55754;52.038;5.566;2022-09-09T07:43:48;10.10;;;2.10;;
68763;SDS011;55754;52.038;5.566;2022-09-09T07:46:15;9.05;;;2.30;;
68763;SDS011;55754;52.038;5.566;2022-09-09T07:48:46;10.23;;;2.20;;
68763;SDS011;55754;52.038;5.566;2022-09-09T07:51:25;7.88;;;2.22;;
68763;SDS011;55754;52.038;5.566;2022-09-09T07:53:56;11.80;;;2.50;;
68763;SDS011;55754;52.038;5.566;2022-09-09T07:56:24;9.93;;;2.30;;
68763;SDS011;55754;52.038;5.566;2022-09-09T07:58:51;8.70;;;1.98;;
68763;SDS011;55754;52.038;5.566;2022-09-09T08:01:26;8.00;;;2.20;;
68763;SDS011;55754;52.038;5.566;2022-09-09T08:04:02;11.68;;;2.20;;
68763;SDS011;55754;52.038;5.566;2022-09-09T08:06:34;8.75;;;2.00;;
68763;SDS011;55754;52.038;5.566;2022-09-09T08:09:02;12.07;;;2.10;;
68763;SDS011;55754;52.038;5.566;2022-09-09T08:11:28;10.40;;;2.05;;
68763;SDS011;55754;52.038;5.566;2022-09-09T08:13:55;11.30;;;2.20;;
68763;SDS011;55754;52.038;5.566;2022-09-09T08:16:22;10.68;;;2.20;;
68763;SDS011;55754;52.038;5.566;2022-09-09T08:18:50;12.10;;;2.40;;
68763;SDS011;55754;52.038;5.566;2022-09-09T08:21:21;9.17;;;2.30;;
68763;SDS011;55754;52.038;5.566;2022-09-09T08:23:53;8.48;;;2.10;;
68763;SDS011;55754;52.038;5.566;2022-09-09T08:28:51;10.23;;;2.70;;
68763;SDS011;55754;52.038;5.566;2022-09-09T08:31:19;7.68;;;2.15;;
68763;SDS011;55754;52.038;5.566;2022-09-09T08:33:47;12.70;;;2.20;;
68763;SDS011;55754;52.038;5.566;2022-09-09T08:36:19;7.95;;;2.08;;
68763;SDS011;55754;52.038;5.566;2022-09-09T08:38:50;10.18;;;2.05;;
68763;SDS011;55754;52.038;5.566;2022-09-09T08:47:17;13.60;;;2.37;;
68763;SDS011;55754;52.038;5.566;2022-09-09T08:52:39;13.10;;;2.50;;
68763;SDS011;55754;52.038;5.566;2022-09-09T09:09:06;12.98;;;2.13;;
68763;SDS011;55754;52.038;5.566;2022-09-09T09:11:44;9.75;;;2.08;;
68763;SDS011;55754;52.038;5.566;2022-09-09T09:14:23;10.87;;;2.13;;
68763;SDS011;55754;52.038;5.566;2022-09-09T09:16:54;9.40;;;2.10;;
68763;SDS011;55754;52.038;5.566;2022-09-09T09:19:40;12.02;;;2.30;;
68763;SDS011;55754;52.038;5.566;2022-09-09T09:22:18;11.93;;;2.30;;
68763;SDS011;55754;52.038;5.566;2022-09-09T09:25:00;8.10;;;2.10;;
68763;SDS011;55754;52.038;5.566;2022-09-09T09:30:35;8.52;;;2.15;;
68763;SDS011;55754;52.038;5.566;2022-09-09T09:33:27;9.65;;;2.35;;
68763;SDS011;55754;52.038;5.566;2022-09-09T09:36:05;9.13;;;2.00;;
68763;SDS011;55754;52.038;5.566;2022-09-09T09:38:33;8.57;;;2.30;;
68763;SDS011;55754;52.038;5.566;2022-09-09T09:41:00;10.97;;;2.50;;
68763;SDS011;55754;52.038;5.566;2022-09-09T09:43:27;9.57;;;2.35;;
68763;SDS011;55754;52.038;5.566;2022-09-09T09:45:56;10.88;;;2.15;;
68763;SDS011;55754;52.038;5.566;2022-09-09T09:48:23;10.27;;;2.03;;
68763;SDS011;55754;52.038;5.566;2022-09-09T09:50:50;7.65;;;2.00;;
68763;SDS011;55754;52.038;5.566;2022-09-09T09:53:32;12.90;;;2.40;;
68763;SDS011;55754;52.038;5.566;2022-09-09T09:56:04;9.20;;;2.08;;
68763;SDS011;55754;52.038;5.566;2022-09-09T09:58:33;8.50;;;2.13;;
68763;SDS011;55754;52.038;5.566;2022-09-09T10:01:18;11.20;;;2.35;;
68763;SDS011;55754;52.038;5.566;2022-09-09T10:03:53;12.27;;;2.38;;
68763;SDS011;55754;52.038;5.566;2022-09-09T10:06:32;13.53;;;2.27;;
68763;SDS011;55754;52.038;5.566;2022-09-09T10:08:59;8.25;;;2.20;;
68763;SDS011;55754;52.038;5.566;2022-09-09T10:11:35;8.57;;;2.20;;
68763;SDS011;55754;52.038;5.566;2022-09-09T10:14:22;9.10;;;2.05;;
68763;SDS011;55754;52.038;5.566;2022-09-09T10:17:06;9.68;;;2.25;;
68763;SDS011;55754;52.038;5.566;2022-09-09T10:19:42;6.07;;;2.00;;
68763;SDS011;55754;52.038;5.566;2022-09-09T10:22:26;10.18;;;2.60;;
68763;SDS011;55754;52.038;5.566;2022-09-09T10:30:42;12.13;;;2.30;;
68763;SDS011;55754;52.038;5.566;2022-09-09T10:38:47;9.40;;;2.35;;
68763;SDS011;55754;52.038;5.566;2022-09-09T10:41:19;9.25;;;2.10;;
68763;SDS011;55754;52.038;5.566;2022-09-09T10:46:43;7.80;;;2.10;;
68763;SDS011;55754;52.038;5.566;2022-09-09T10:52:13;7.20;;;2.00;;
68763;SDS011;55754;52.038;5.566;2022-09-09T10:59:42;8.93;;;2.40;;
68763;SDS011;55754;52.038;5.566;2022-09-09T11:02:45;10.55;;;2.50;;
68763;SDS011;55754;52.038;5.566;2022-09-09T11:05:09;9.43;;;2.60;;
68763;SDS011;55754;52.038;5.566;2022-09-09T11:07:48;9.07;;;2.45;;
68763;SDS011;55754;52.038;5.566;2022-09-09T11:13:59;9.13;;;2.50;;
68763;SDS011;55754;52.038;5.566;2022-09-09T11:19:13;9.25;;;2.70;;
68763;SDS011;55754;52.038;5.566;2022-09-09T11:21:50;8.30;;;2.47;;
68763;SDS011;55754;52.038;5.566;2022-09-09T11:24:21;9.68;;;3.00;;
68763;SDS011;55754;52.038;5.566;2022-09-09T11:26:55;8.57;;;2.67;;
68763;SDS011;55754;52.038;5.566;2022-09-09T11:38:25;8.07;;;2.22;;
68763;SDS011;55754;52.038;5.566;2022-09-09T11:40:56;10.37;;;2.97;;
68763;SDS011;55754;52.038;5.566;2022-09-09T11:43:27;7.50;;;2.67;;
68763;SDS011;55754;52.038;5.566;2022-09-09T11:45:59;9.82;;;2.35;;
68763;SDS011;55754;52.038;5.566;2022-09-09T11:48:34;11.05;;;2.80;;
68763;SDS011;55754;52.038;5.566;2022-09-09T11:51:06;9.05;;;2.63;;
68763;SDS011;55754;52.038;5.566;2022-09-09T11:53:49;7.60;;;2.40;;
68763;SDS011;55754;52.038;5.566;2022-09-09T11:56:29;10.35;;;2.60;;
68763;SDS011;55754;52.038;5.566;2022-09-09T11:59:04;7.20;;;2.42;;
68763;SDS011;55754;52.038;5.566;2022-09-09T12:01:37;13.02;;;2.67;;
68763;SDS011;55754;52.038;5.566;2022-09-09T12:12:07;6.55;;;2.00;;
68763;SDS011;55754;52.038;5.566;2022-09-09T12:17:31;7.97;;;2.38;;
68763;SDS011;55754;52.038;5.566;2022-09-09T12:20:17;7.37;;;2.77;;
68763;SDS011;55754;52.038;5.566;2022-09-09T12:28:10;9.40;;;2.67;;
68763;SDS011;55754;52.038;5.566;2022-09-09T12:33:17;9.03;;;2.80;;
68763;SDS011;55754;52.038;5.566;2022-09-09T12:35:44;7.85;;;2.50;;
68763;SDS011;55754;52.038;5.566;2022-09-09T12:38:27;10.70;;;2.72;;
68763;SDS011;55754;52.038;5.566;2022-09-09T12:40:59;8.20;;;2.50;;
68763;SDS011;55754;52.038;5.566;2022-09-09T12:43:25;8.65;;;2.70;;
68763;SDS011;55754;52.038;5.566;2022-09-09T12:45:57;9.17;;;2.67;;
68763;SDS011;55754;52.038;5.566;2022-09-09T12:48:33;7.38;;;2.47;;
68763;SDS011;55754;52.038;5.566;2022-09-09T12:51:01;7.88;;;2.58;;
68763;SDS011;55754;52.038;5.566;2022-09-09T12:53:31;7.32;;;2.22;;
68763;SDS011;55754;52.038;5.566;2022-09-09T12:56:06;7.57;;;2.58;;
68763;SDS011;55754;52.038;5.566;2022-09-09T12:58:33;7.07;;;2.30;;
68763;SDS011;55754;52.038;5.566;2022-09-09T13:01:01;9.93;;;2.22;;
68763;SDS011;55754;52.038;5.566;2022-09-09T13:03:32;6.68;;;2.03;;
68763;SDS011;55754;52.038;5.566;2022-09-09T13:06:12;8.40;;;2.50;;
68763;SDS011;55754;52.038;5.566;2022-09-09T13:08:43;6.63;;;1.88;;
68763;SDS011;55754;52.038;5.566;2022-09-09T13:11:10;7.47;;;2.40;;
68763;SDS011;55754;52.038;5.566;2022-09-09T13:13:41;7.68;;;2.50;;
68763;SDS011;55754;52.038;5.566;2022-09-09T13:16:21;6.95;;;2.05;;
68763;SDS011;55754;52.038;5.566;2022-09-09T13:18:56;7.43;;;2.08;;
68763;SDS011;55754;52.038;5.566;2022-09-09T13:21:41;7.40;;;1.97;;
68763;SDS011;55754;52.038;5.566;2022-09-09T13:26:58;8.50;;;2.10;;
68763;SDS011;55754;52.038;5.566;2022-09-09T13:29:28;5.78;;;1.88;;
68763;SDS011;55754;52.038;5.566;2022-09-09T13:32:05;8.93;;;2.15;;
68763;SDS011;55754;52.038;5.566;2022-09-09T13:34:37;6.07;;;1.87;;
68763;SDS011;55754;52.038;5.566;2022-09-09T13:37:04;6.15;;;1.98;;
68763;SDS011;55754;52.038;5.566;2022-09-09T13:39:35;6.80;;;2.30;;
68763;SDS011;55754;52.038;5.566;2022-09-09T13:42:02;6.77;;;2.10;;
68763;SDS011;55754;52.038;5.566;2022-09-09T13:44:30;7.40;;;2.15;;
68763;SDS011;55754;52.038;5.566;2022-09-09T13:47:02;9.40;;;2.10;;
68763;SDS011;55754;52.038;5.566;2022-09-09T13:49:30;7.72;;;2.10;;
68763;SDS011;55754;52.038;5.566;2022-09-09T13:52:05;8.32;;;2.40;;
68763;SDS011;55754;52.038;5.566;2022-09-09T13:54:42;6.97;;;2.20;;
68763;SDS011;55754;52.038;5.566;2022-09-09T13:57:21;7.65;;;2.25;;
68763;SDS011;55754;52.038;5.566;2022-09-09T13:59:50;7.60;;;2.20;;
68763;SDS011;55754;52.038;5.566;2022-09-09T14:02:17;6.97;;;2.15;;
68763;SDS011;55754;52.038;5.566;2022-09-09T14:04:43;6.40;;;1.95;;
68763;SDS011;55754;52.038;5.566;2022-09-09T14:07:13;6.73;;;1.90;;
68763;SDS011;55754;52.038;5.566;2022-09-09T14:09:40;6.55;;;1.80;;
68763;SDS011;55754;52.038;5.566;2022-09-09T14:12:08;8.52;;;2.05;;
68763;SDS011;55754;52.038;5.566;2022-09-09T14:14:38;6.85;;;2.00;;
68763;SDS011;55754;52.038;5.566;2022-09-09T14:17:04;6.53;;;1.77;;
68763;SDS011;55754;52.038;5.566;2022-09-09T14:19:30;5.45;;;1.90;;
68763;SDS011;55754;52.038;5.566;2022-09-09T14:21:56;6.23;;;1.90;;
68763;SDS011;55754;52.038;5.566;2022-09-09T14:24:22;6.22;;;2.03;;
68763;SDS011;55754;52.038;5.566;2022-09-09T14:26:48;6.75;;;2.20;;
68763;SDS011;55754;52.038;5.566;2022-09-09T14:29:14;9.33;;;2.20;;
68763;SDS011;55754;52.038;5.566;2022-09-09T14:31:39;8.90;;;2.20;;
68763;SDS011;55754;52.038;5.566;2022-09-09T14:34:05;7.57;;;2.40;;
68763;SDS011;55754;52.038;5.566;2022-09-09T14:36:31;7.47;;;2.20;;
68763;SDS011;55754;52.038;5.566;2022-09-09T14:38:57;5.97;;;2.33;;
68763;SDS011;55754;52.038;5.566;2022-09-09T14:41:23;9.73;;;2.30;;
68763;SDS011;55754;52.038;5.566;2022-09-09T14:43:50;7.85;;;2.15;;
68763;SDS011;55754;52.038;5.566;2022-09-09T14:46:17;8.23;;;2.40;;
68763;SDS011;55754;52.038;5.566;2022-09-09T14:48:44;7.17;;;2.20;;
68763;SDS011;55754;52.038;5.566;2022-09-09T14:51:28;8.65;;;2.33;;
68763;SDS011;55754;52.038;5.566;2022-09-09T14:53:54;7.15;;;2.20;;
68763;SDS011;55754;52.038;5.566;2022-09-09T14:56:22;7.10;;;2.10;;
68763;SDS011;55754;52.038;5.566;2022-09-09T14:58:52;8.82;;;2.45;;
68763;SDS011;55754;52.038;5.566;2022-09-09T15:01:20;7.70;;;2.27;;
68763;SDS011;55754;52.038;5.566;2022-09-09T15:03:51;8.98;;;2.20;;
68763;SDS011;55754;52.038;5.566;2022-09-09T15:06:19;7.05;;;2.00;;
68763;SDS011;55754;52.038;5.566;2022-09-09T15:08:46;6.47;;;2.00;;
68763;SDS011;55754;52.038;5.566;2022-09-09T15:11:12;8.50;;;2.20;;
68763;SDS011;55754;52.038;5.566;2022-09-09T15:13:39;6.65;;;2.50;;
68763;SDS011;55754;52.038;5.566;2022-09-09T15:18:36;6.47;;;1.52;;
68763;SDS011;55754;52.038;5.566;2022-09-09T15:21:14;5.63;;;1.73;;
68763;SDS011;55754;52.038;5.566;2022-09-09T15:23:42;4.50;;;1.50;;
68763;SDS011;55754;52.038;5.566;2022-09-09T15:26:08;4.63;;;1.50;;
68763;SDS011;55754;52.038;5.566;2022-09-09T15:28:35;6.25;;;1.60;;
68763;SDS011;55754;52.038;5.566;2022-09-09T15:31:21;5.38;;;1.50;;
68763;SDS011;55754;52.038;5.566;2022-09-09T15:33:55;5.38;;;1.75;;
68763;SDS011;55754;52.038;5.566;2022-09-09T15:36:26;5.70;;;1.80;;
68763;SDS011;55754;52.038;5.566;2022-09-09T15:38:57;6.72;;;1.75;;
68763;SDS011;55754;52.038;5.566;2022-09-09T15:41:24;7.43;;;1.90;;
68763;SDS011;55754;52.038;5.566;2022-09-09T15:43:51;6.25;;;1.77;;
68763;SDS011;55754;52.038;5.566;2022-09-09T15:46:52;6.00;;;1.92;;
68763;SDS011;55754;52.038;5.566;2022-09-09T15:49:16;6.83;;;2.10;;
68763;SDS011;55754;52.038;5.566;2022-09-09T15:51:45;6.70;;;1.98;;
68763;SDS011;55754;52.038;5.566;2022-09-09T15:54:14;6.47;;;1.80;;
68763;SDS011;55754;52.038;5.566;2022-09-09T15:56:46;4.45;;;1.50;;
68763;SDS011;55754;52.038;5.566;2022-09-09T15:59:15;5.93;;;1.40;;
68763;SDS011;55754;52.038;5.566;2022-09-09T16:01:41;5.07;;;1.40;;
68763;SDS011;55754;52.038;5.566;2022-09-09T16:04:07;4.30;;;1.40;;
68763;SDS011;55754;52.038;5.566;2022-09-09T16:06:33;6.07;;;1.40;;
68763;SDS011;55754;52.038;5.566;2022-09-09T16:08:59;3.53;;;1.30;;
68763;SDS011;55754;52.038;5.566;2022-09-09T16:11:27;4.03;;;1.37;;
68763;SDS011;55754;52.038;5.566;2022-09-09T16:13:56;5.07;;;1.48;;
68763;SDS011;55754;52.038;5.566;2022-09-09T16:16:23;4.72;;;1.45;;
68763;SDS011;55754;52.038;5.566;2022-09-09T16:18:54;6.40;;;1.40;;
68763;SDS011;55754;52.038;5.566;2022-09-09T16:21:28;4.13;;;1.50;;
68763;SDS011;55754;52.038;5.566;2022-09-09T16:23:56;6.43;;;1.50;;
68763;SDS011;55754;52.038;5.566;2022-09-09T16:26:24;5.43;;;1.40;;
68763;SDS011;55754;52.038;5.566;2022-09-09T16:28:50;4.97;;;1.40;;
68763;SDS011;55754;52.038;5.566;2022-09-09T16:31:20;4.85;;;1.50;;
68763;SDS011;55754;52.038;5.566;2022-09-09T16:33:47;6.82;;;1.50;;
68763;SDS011;55754;52.038;5.566;2022-09-09T16:36:16;6.90;;;1.40;;
68763;SDS011;55754;52.038;5.566;2022-09-09T16:38:43;6.70;;;1.67;;
68763;SDS011;55754;52.038;5.566;2022-09-09T16:41:09;6.38;;;1.70;;
68763;SDS011;55754;52.038;5.566;2022-09-09T16:43:36;6.03;;;1.67;;
68763;SDS011;55754;52.038;5.566;2022-09-09T16:46:02;8.07;;;1.73;;
68763;SDS011;55754;52.038;5.566;2022-09-09T16:48:32;6.47;;;1.60;;
68763;SDS011;55754;52.038;5.566;2022-09-09T16:51:09;5.22;;;1.58;;
68763;SDS011;55754;52.038;5.566;2022-09-09T16:53:39;5.35;;;1.60;;
68763;SDS011;55754;52.038;5.566;2022-09-09T16:56:08;6.13;;;1.70;;
68763;SDS011;55754;52.038;5.566;2022-09-09T16:58:38;6.03;;;1.73;;
68763;SDS011;55754;52.038;5.566;2022-09-09T17:01:04;5.27;;;1.77;;
68763;SDS011;55754;52.038;5.566;2022-09-09T17:03:31;5.72;;;1.70;;
68763;SDS011;55754;52.038;5.566;2022-09-09T17:05:57;6.57;;;2.10;;
68763;SDS011;55754;52.038;5.566;2022-09-09T17:08:28;6.53;;;1.90;;
68763;SDS011;55754;52.038;5.566;2022-09-09T17:10:56;5.95;;;2.05;;
68763;SDS011;55754;52.038;5.566;2022-09-09T17:13:23;4.57;;;1.70;;
68763;SDS011;55754;52.038;5.566;2022-09-09T17:15:50;6.90;;;2.10;;
68763;SDS011;55754;52.038;5.566;2022-09-09T17:18:16;6.40;;;2.20;;
68763;SDS011;55754;52.038;5.566;2022-09-09T17:20:42;5.88;;;2.10;;
68763;SDS011;55754;52.038;5.566;2022-09-09T17:23:09;6.70;;;2.00;;
68763;SDS011;55754;52.038;5.566;2022-09-09T17:25:36;6.27;;;2.00;;
68763;SDS011;55754;52.038;5.566;2022-09-09T17:28:03;10.75;;;2.17;;